createdAt,value
2019-01-15T00:02:07.486Z,0.33
2019-01-15T00:04:38.502Z,0.36
2019-01-15T00:07:09.413Z,0.33
2019-01-15T00:09:40.424Z,0.31
2019-01-15T00:12:11.373Z,0.30
2019-01-15T00:14:42.384Z,0.27
2019-01-15T00:17:13.345Z,0.28
2019-01-15T00:19:44.338Z,0.31
2019-01-15T00:22:15.296Z,0.31
2019-01-15T00:24:46.217Z,0.31
2019-01-15T00:27:17.112Z,0.29
2019-01-15T00:29:48.104Z,0.31
2019-01-15T00:32:19.037Z,0.29
2019-01-15T00:34:50.032Z,0.30
2019-01-15T00:37:20.953Z,0.29
2019-01-15T00:39:51.901Z,0.28
2019-01-15T00:42:22.819Z,0.26
2019-01-15T00:44:53.822Z,0.23
2019-01-15T00:47:24.720Z,0.19
2019-01-15T00:49:55.662Z,0.14
2019-01-15T00:52:26.646Z,0.06
2019-01-15T00:54:57.565Z,0.00
2019-01-15T00:57:28.479Z,-0.03
2019-01-15T00:59:59.428Z,-0.05
2019-01-15T01:02:30.350Z,-0.06
2019-01-15T01:05:01.407Z,-0.11
2019-01-15T01:07:32.408Z,-0.11
2019-01-15T01:10:03.384Z,-0.13
2019-01-15T01:12:34.361Z,-0.14
2019-01-15T01:15:06.271Z,-0.14
2019-01-15T01:17:37.255Z,-0.07
2019-01-15T01:20:09.612Z,-0.03
2019-01-15T01:22:40.605Z,0.08
2019-01-15T01:25:12.157Z,0.08
2019-01-15T01:27:43.086Z,0.16
2019-01-15T01:30:19.185Z,0.20
2019-01-15T01:32:50.103Z,0.21
2019-01-15T01:35:21.025Z,0.25
2019-01-15T01:37:52.005Z,0.26
2019-01-15T01:40:22.949Z,0.30
2019-01-15T01:42:53.859Z,0.30
2019-01-15T01:45:24.807Z,0.37
2019-01-15T01:47:55.728Z,0.40
2019-01-15T01:50:27.631Z,0.39
2019-01-15T01:52:58.685Z,0.39
2019-01-15T01:55:29.619Z,0.40
2019-01-15T01:58:00.534Z,0.43
2019-01-15T02:00:31.471Z,0.46
2019-01-15T02:03:02.476Z,0.49
2019-01-15T02:05:33.472Z,0.51
2019-01-15T02:08:04.984Z,0.52
2019-01-15T02:10:36.006Z,0.53
2019-01-15T02:13:06.940Z,0.54
2019-01-15T02:15:37.887Z,0.53
2019-01-15T02:18:08.856Z,0.60
2019-01-15T02:20:39.883Z,0.64
2019-01-15T02:23:10.883Z,0.68
2019-01-15T02:25:41.902Z,0.69
2019-01-15T02:28:12.816Z,0.73
2019-01-15T02:30:43.829Z,0.74
2019-01-15T02:33:14.748Z,0.76
2019-01-15T02:35:45.682Z,0.74
2019-01-15T02:38:17.274Z,0.76
2019-01-15T02:40:48.278Z,0.73
2019-01-15T02:43:19.194Z,0.76
2019-01-15T02:45:50.150Z,0.74
2019-01-15T02:48:21.054Z,0.70
2019-01-15T02:50:52.190Z,0.72
2019-01-15T02:53:23.123Z,0.72
2019-01-15T02:55:54.087Z,0.74
2019-01-15T02:58:24.996Z,0.73
2019-01-15T03:00:55.931Z,0.73
2019-01-15T03:03:26.844Z,0.75
2019-01-15T03:05:57.781Z,0.76
2019-01-15T03:08:28.723Z,0.74
2019-01-15T03:10:59.654Z,0.77
2019-01-15T03:13:30.578Z,0.76
2019-01-15T03:16:01.578Z,0.71
2019-01-15T03:18:32.513Z,0.72
2019-01-15T03:21:03.461Z,0.68
2019-01-15T03:23:34.375Z,0.69
2019-01-15T03:26:05.408Z,0.66
2019-01-15T03:28:36.305Z,0.68
2019-01-15T03:31:07.252Z,0.67
2019-01-15T03:33:38.141Z,0.64
2019-01-15T03:36:09.149Z,0.65
2019-01-15T03:38:40.066Z,0.67
2019-01-15T03:41:11.041Z,0.66
2019-01-15T03:43:41.955Z,0.63
2019-01-15T03:46:12.912Z,0.59
2019-01-15T03:48:43.821Z,0.51
2019-01-15T03:51:14.862Z,0.46
2019-01-15T03:53:45.786Z,0.43
2019-01-15T03:56:16.732Z,0.42
2019-01-15T03:58:47.724Z,0.44
2019-01-15T04:01:18.668Z,0.46
2019-01-15T04:03:49.590Z,0.47
2019-01-15T04:06:20.648Z,0.49
2019-01-15T04:08:51.621Z,0.54
2019-01-15T04:11:22.628Z,0.59
2019-01-15T04:13:53.544Z,0.61
2019-01-15T04:16:24.450Z,0.58
2019-01-15T04:18:55.381Z,0.61
2019-01-15T04:21:26.322Z,0.62
2019-01-15T04:23:57.226Z,0.61
2019-01-15T04:26:28.132Z,0.59
2019-01-15T04:28:59.035Z,0.62
2019-01-15T04:31:29.976Z,0.58
2019-01-15T04:34:00.866Z,0.51
2019-01-15T04:36:31.779Z,0.47
2019-01-15T04:39:03.478Z,0.39
2019-01-15T04:41:35.418Z,0.39
2019-01-15T04:44:06.403Z,0.38
2019-01-15T04:46:37.361Z,0.39
2019-01-15T04:49:08.306Z,0.41
2019-01-15T04:51:39.195Z,0.44
2019-01-15T04:54:10.112Z,0.47
2019-01-15T04:56:41.218Z,0.49
2019-01-15T04:59:12.207Z,0.51
2019-01-15T05:01:43.124Z,0.49
2019-01-15T05:04:14.035Z,0.47
2019-01-15T05:06:45.006Z,0.48
2019-01-15T05:09:15.963Z,0.47
2019-01-15T05:11:46.893Z,0.49
2019-01-15T05:14:18.929Z,0.47
2019-01-15T05:16:50.934Z,0.48
2019-01-15T05:19:21.870Z,0.45
2019-01-15T05:21:52.779Z,0.54
2019-01-15T05:24:23.803Z,0.60
2019-01-15T05:26:54.727Z,0.64
2019-01-15T05:29:25.677Z,0.72
2019-01-15T05:31:56.638Z,0.81
2019-01-15T05:34:27.576Z,0.96
2019-01-15T05:36:58.514Z,0.96
2019-01-15T05:39:29.466Z,0.99
2019-01-15T05:42:00.510Z,1.05
2019-01-15T05:44:31.557Z,1.04
2019-01-15T05:47:02.460Z,1.04
2019-01-15T05:49:33.443Z,1.03
2019-01-15T05:52:04.367Z,0.93
2019-01-15T05:54:35.384Z,0.78
2019-01-15T05:57:06.300Z,0.74
2019-01-15T05:59:37.293Z,0.70
2019-01-15T06:02:08.273Z,0.72
2019-01-15T06:04:39.256Z,0.65
2019-01-15T06:07:10.213Z,0.55
2019-01-15T06:09:41.158Z,0.47
2019-01-15T06:12:12.097Z,0.45
2019-01-15T06:14:43.035Z,0.40
2019-01-15T06:17:14.045Z,0.35
2019-01-15T06:19:45.131Z,0.34
2019-01-15T06:22:16.088Z,0.32
2019-01-15T06:24:47.334Z,0.34
2019-01-15T06:27:18.305Z,0.42
2019-01-15T06:29:49.302Z,0.45
2019-01-15T06:32:20.279Z,0.48
2019-01-15T06:34:51.219Z,0.47
2019-01-15T06:37:22.156Z,0.53
2019-01-15T06:39:53.094Z,0.54
2019-01-15T06:42:24.095Z,0.56
2019-01-15T06:44:55.036Z,0.62
2019-01-15T06:47:26.042Z,0.69
2019-01-15T06:49:56.958Z,0.74
2019-01-15T06:52:27.886Z,0.74
2019-01-15T06:54:58.834Z,0.75
2019-01-15T06:57:29.753Z,0.77
2019-01-15T07:00:00.702Z,0.77
2019-01-15T07:02:31.918Z,0.75
2019-01-15T07:05:02.921Z,0.75
2019-01-15T07:07:33.837Z,0.74
2019-01-15T07:10:05.744Z,0.72
2019-01-15T07:12:36.837Z,0.68
2019-01-15T07:15:07.857Z,0.65
2019-01-15T07:17:38.793Z,0.64
2019-01-15T07:20:10.649Z,0.63
2019-01-15T07:22:41.660Z,0.65
2019-01-15T07:25:13.747Z,0.68
2019-01-15T07:27:44.742Z,0.69
2019-01-15T07:30:21.628Z,0.67
2019-01-15T07:32:52.564Z,0.71
2019-01-15T07:35:23.498Z,0.73
2019-01-15T07:37:54.569Z,0.75
2019-01-15T07:40:25.507Z,0.75
2019-01-15T07:42:56.447Z,0.75
2019-01-15T07:45:27.363Z,0.78
2019-01-15T07:47:58.404Z,0.79
2019-01-15T07:50:29.322Z,0.81
2019-01-15T07:53:00.304Z,0.84
2019-01-15T07:55:31.235Z,0.84
2019-01-15T07:58:02.268Z,0.87
2019-01-15T08:00:33.304Z,0.88
2019-01-15T08:03:04.571Z,0.88
2019-01-15T08:05:35.494Z,0.91
2019-01-15T08:08:06.475Z,0.85
2019-01-15T08:10:37.547Z,0.85
2019-01-15T08:13:08.811Z,0.93
2019-01-15T08:15:39.812Z,0.91
2019-01-15T08:18:10.896Z,0.90
2019-01-15T08:20:41.918Z,0.84
2019-01-15T08:23:12.910Z,0.83
2019-01-15T08:25:43.848Z,0.84
2019-01-15T08:28:14.885Z,0.88
2019-01-15T08:30:45.807Z,0.90
2019-01-15T08:33:16.819Z,0.93
2019-01-15T08:35:47.905Z,0.95
2019-01-15T08:38:18.952Z,1.02
2019-01-15T08:40:49.948Z,1.08
2019-01-15T08:43:20.962Z,1.05
2019-01-15T08:45:55.396Z,1.04
2019-01-15T08:48:26.903Z,1.02
2019-01-15T08:50:58.411Z,1.03
2019-01-15T08:53:29.535Z,0.98
2019-01-15T08:56:01.201Z,0.95
2019-01-15T08:58:32.149Z,0.95
2019-01-15T09:01:03.177Z,0.87
2019-01-15T09:03:34.148Z,0.80
2019-01-15T09:06:05.187Z,0.78
2019-01-15T09:08:36.244Z,0.76
2019-01-15T09:11:07.281Z,0.73
2019-01-15T09:13:38.387Z,0.74
2019-01-15T09:16:09.438Z,0.80
2019-01-15T09:18:40.824Z,0.83
2019-01-15T09:21:11.920Z,0.86
2019-01-15T09:23:42.892Z,0.82
2019-01-15T09:26:15.386Z,0.85
2019-01-15T09:28:46.671Z,0.90
2019-01-15T09:31:17.708Z,0.91
2019-01-15T09:33:48.753Z,0.92
2019-01-15T09:36:19.717Z,0.88
2019-01-15T09:38:50.649Z,0.86
2019-01-15T09:41:21.614Z,0.88
2019-01-15T09:43:52.759Z,0.88
2019-01-15T09:46:23.741Z,0.88
2019-01-15T09:48:54.723Z,0.90
2019-01-15T09:51:25.736Z,0.85
2019-01-15T09:54:15.442Z,0.82
2019-01-15T10:04:04.727Z,0.74
2019-01-15T10:06:35.694Z,0.76
2019-01-15T10:09:09.412Z,0.73
2019-01-15T10:11:40.458Z,0.75
2019-01-15T10:14:11.454Z,0.73
2019-01-15T10:16:42.415Z,0.71
2019-01-15T10:19:13.426Z,0.74
2019-01-15T10:21:45.373Z,0.74
2019-01-15T10:24:16.390Z,0.74
2019-01-15T10:26:47.414Z,0.78
2019-01-15T10:29:20.867Z,0.80
2019-01-15T10:32:37.796Z,0.83
2019-01-15T10:35:13.814Z,0.87
2019-01-15T10:37:44.827Z,0.97
2019-01-15T10:40:15.788Z,1.03
2019-01-15T10:42:46.784Z,1.07
2019-01-15T10:45:17.821Z,1.14
2019-01-15T10:47:48.832Z,1.17
2019-01-15T10:50:20.973Z,1.23
2019-01-15T10:52:52.995Z,1.31
2019-01-15T10:55:24.005Z,1.37
2019-01-15T10:57:55.014Z,1.42
2019-01-15T11:00:25.937Z,1.44
2019-01-15T11:02:56.952Z,1.48
2019-01-15T11:05:27.877Z,1.52
2019-01-15T11:07:58.808Z,1.60
2019-01-15T11:10:29.862Z,1.65
2019-01-15T11:13:02.378Z,1.73
2019-01-15T11:15:34.539Z,1.74
2019-01-15T11:18:06.594Z,1.74
2019-01-15T11:20:37.599Z,1.69
2019-01-15T11:23:08.556Z,1.69
2019-01-15T11:25:39.598Z,1.70
2019-01-15T11:28:10.663Z,1.71
2019-01-15T11:30:41.752Z,1.66
2019-01-15T11:33:12.848Z,1.65
2019-01-15T11:35:43.860Z,1.69
2019-01-15T11:38:14.901Z,1.71
2019-01-15T11:40:45.865Z,1.69
2019-01-15T11:43:16.932Z,1.68
2019-01-15T11:45:47.992Z,1.70
2019-01-15T11:48:19.045Z,1.72
2019-01-15T11:50:49.960Z,1.73
2019-01-15T11:53:20.947Z,1.74
2019-01-15T11:55:52.065Z,1.76
2019-01-15T11:58:23.207Z,1.78
2019-01-15T12:00:59.156Z,1.78
2019-01-15T12:03:55.339Z,1.82
2019-01-15T12:06:45.149Z,1.89
2019-01-15T12:09:33.753Z,2.00
2019-01-15T12:12:29.378Z,2.04
2019-01-15T12:15:19.319Z,2.08
2019-01-15T12:18:08.389Z,2.12
2019-01-15T12:20:51.183Z,2.20
2019-01-15T12:23:56.340Z,2.21
2019-01-15T12:26:50.602Z,2.26
2019-01-15T12:29:58.815Z,2.29
2019-01-15T12:32:51.505Z,2.32
2019-01-15T12:35:47.263Z,2.35
2019-01-15T12:38:43.039Z,2.41
2019-01-15T12:41:42.073Z,2.52
2019-01-15T12:44:50.371Z,2.61
2019-01-15T12:47:34.705Z,2.66
2019-01-15T12:50:18.226Z,2.62
2019-01-15T12:53:26.530Z,2.66
2019-01-15T12:56:19.653Z,2.68
2019-01-15T12:59:09.536Z,2.69
2019-01-15T13:02:02.299Z,2.66
2019-01-15T13:05:07.571Z,2.63
2019-01-15T13:08:08.298Z,2.62
2019-01-15T13:11:07.273Z,2.57
2019-01-15T13:13:59.902Z,2.55
2019-01-15T13:16:52.598Z,2.57
2019-01-15T13:19:48.585Z,2.48
2019-01-15T13:22:39.144Z,2.46
2019-01-15T13:25:32.960Z,2.41
2019-01-15T13:28:29.032Z,2.40
2019-01-15T13:31:18.993Z,2.43
2019-01-15T13:34:08.835Z,2.40
2019-01-15T13:36:57.669Z,2.38
2019-01-15T13:39:47.643Z,2.38
2019-01-15T13:42:52.929Z,2.42
2019-01-15T13:45:45.915Z,2.45
2019-01-15T13:48:41.977Z,2.43
2019-01-15T13:51:30.615Z,2.41
2019-01-15T13:54:19.070Z,2.46
2019-01-15T13:57:18.103Z,2.46
2019-01-15T14:00:02.625Z,2.45
2019-01-15T14:02:56.817Z,2.41
2019-01-15T14:05:38.200Z,2.37
2019-01-15T14:08:43.335Z,2.29
2019-01-15T14:11:31.806Z,2.25
2019-01-15T14:14:24.445Z,2.19
2019-01-15T14:17:14.294Z,2.12
2019-01-15T14:20:03.022Z,2.24
2019-01-15T14:22:59.223Z,2.35
2019-01-15T14:25:59.352Z,2.36
2019-01-15T14:28:46.510Z,2.38
2019-01-15T14:31:54.783Z,2.32
2019-01-15T14:34:44.758Z,2.36
2019-01-15T14:37:43.479Z,2.16
2019-01-15T14:40:37.350Z,2.05
2019-01-15T14:43:27.195Z,1.97
2019-01-15T14:46:15.608Z,1.92
2019-01-15T14:49:04.468Z,1.89
2019-01-15T14:51:54.311Z,1.87
2019-01-15T14:54:44.264Z,1.87
2019-01-15T14:57:37.240Z,1.88
2019-01-15T15:00:26.897Z,1.87
2019-01-15T15:03:22.382Z,1.86
2019-01-15T15:06:08.252Z,1.90
2019-01-15T15:08:59.485Z,1.91
2019-01-15T15:11:47.927Z,1.96
2019-01-15T15:14:31.834Z,2.01
2019-01-15T15:17:20.380Z,2.03
2019-01-15T15:20:10.321Z,2.09
2019-01-15T15:22:52.071Z,2.11
2019-01-15T15:25:45.081Z,2.15
2019-01-15T15:28:43.847Z,2.17
2019-01-15T15:31:32.921Z,2.22
2019-01-15T15:34:26.199Z,2.25
2019-01-15T15:37:14.747Z,2.27
2019-01-15T15:40:04.749Z,2.29
2019-01-15T15:42:57.679Z,2.34
2019-01-15T15:45:50.495Z,2.37
2019-01-15T15:48:46.159Z,2.39
2019-01-15T15:51:31.892Z,2.42
2019-01-15T15:54:28.001Z,2.45
2019-01-15T15:57:17.847Z,2.45
2019-01-15T16:00:06.533Z,2.47
2019-01-15T16:03:05.638Z,2.46
2019-01-15T16:06:07.695Z,2.49
2019-01-15T16:09:09.923Z,2.49
2019-01-15T16:11:58.830Z,2.52
2019-01-15T16:14:45.706Z,2.52
2019-01-15T16:17:35.540Z,2.55
2019-01-15T16:20:29.312Z,2.58
2019-01-15T16:23:28.399Z,2.61
2019-01-15T16:26:17.726Z,2.65
2019-01-15T16:29:23.003Z,2.66
2019-01-15T16:32:11.747Z,2.68
2019-01-15T16:35:07.764Z,2.65
2019-01-15T16:37:56.285Z,2.61
2019-01-15T16:40:53.210Z,2.57
2019-01-15T16:43:39.912Z,2.51
2019-01-15T16:46:26.643Z,2.47
2019-01-15T16:49:20.448Z,2.47
2019-01-15T16:52:09.231Z,2.50
2019-01-15T16:55:05.306Z,2.57
2019-01-15T16:58:01.073Z,2.60
2019-01-15T17:01:08.896Z,2.62
2019-01-15T17:03:52.902Z,2.63
2019-01-15T17:06:54.920Z,2.63
2019-01-15T17:09:43.678Z,2.63
2019-01-15T17:12:31.502Z,2.61
2019-01-15T17:15:36.468Z,2.66
2019-01-15T17:18:29.352Z,2.56
2019-01-15T17:21:13.721Z,2.51
2019-01-15T17:24:02.546Z,2.49
2019-01-15T17:27:07.843Z,2.48
2019-01-15T17:30:03.878Z,2.49
2019-01-15T17:32:53.511Z,2.45
2019-01-15T17:35:44.958Z,2.45
2019-01-15T17:38:37.874Z,2.46
2019-01-15T17:41:26.739Z,2.45
2019-01-15T17:44:05.577Z,2.43
2019-01-15T17:47:04.891Z,2.49
2019-01-15T17:49:53.845Z,2.51
2019-01-15T17:52:52.013Z,2.53
2019-01-15T17:55:57.018Z,2.53
2019-01-15T17:58:51.451Z,2.55
2019-01-15T18:01:33.706Z,2.55
2019-01-15T18:04:24.462Z,2.60
2019-01-15T18:07:13.225Z,2.59
2019-01-15T18:10:01.671Z,2.60
2019-01-15T18:13:03.565Z,2.59
2019-01-15T18:15:50.089Z,2.60
2019-01-15T18:18:28.606Z,2.59
2019-01-15T18:21:17.040Z,2.63
2019-01-15T18:24:06.895Z,2.68
2019-01-15T18:27:02.772Z,2.69
2019-01-15T18:29:51.213Z,2.73
2019-01-15T18:32:46.851Z,2.76
2019-01-15T18:35:39.480Z,2.77
2019-01-15T18:38:35.452Z,2.79
2019-01-15T18:41:25.280Z,2.83
2019-01-15T18:44:22.063Z,2.86
2019-01-15T18:47:24.016Z,2.89
2019-01-15T18:50:16.688Z,2.92
2019-01-15T18:53:10.304Z,2.95
2019-01-15T18:56:03.236Z,2.97
2019-01-15T18:58:51.932Z,3.02
2019-01-15T19:01:40.700Z,3.03
2019-01-15T19:04:25.653Z,3.05
2019-01-15T19:07:16.675Z,3.09
2019-01-15T19:10:18.699Z,3.08
2019-01-15T19:13:06.770Z,3.14
2019-01-15T19:16:06.481Z,3.19
2019-01-15T19:18:55.868Z,3.20
2019-01-15T19:21:44.388Z,3.25
2019-01-15T19:24:27.511Z,3.28
2019-01-15T19:27:13.822Z,3.31
2019-01-15T19:30:08.088Z,3.32
2019-01-15T19:33:11.408Z,3.33
2019-01-15T19:36:00.047Z,3.35
2019-01-15T19:38:53.016Z,3.41
2019-01-15T19:41:49.042Z,3.46
2019-01-15T19:44:35.539Z,3.47
2019-01-15T19:47:24.126Z,3.49
2019-01-15T19:50:23.093Z,3.53
2019-01-15T19:53:13.049Z,3.54
2019-01-15T19:56:09.150Z,3.57
2019-01-15T19:59:08.373Z,3.59
2019-01-15T20:01:56.822Z,3.65
2019-01-15T20:04:49.995Z,3.67
2019-01-15T20:07:52.191Z,3.71
2019-01-15T20:10:42.445Z,3.75
2019-01-15T20:13:32.381Z,3.77
2019-01-15T20:16:22.253Z,3.82
2019-01-15T20:19:27.225Z,3.84
2019-01-15T20:22:10.196Z,3.88
2019-01-15T20:25:00.030Z,3.94
2019-01-15T20:27:59.093Z,4.01
2019-01-15T20:31:00.956Z,4.07
2019-01-15T20:33:49.362Z,4.10
2019-01-15T20:36:32.676Z,4.13
2019-01-15T20:39:31.653Z,4.18
2019-01-15T20:42:24.587Z,4.22
2019-01-15T20:45:10.943Z,4.25
2019-01-15T20:47:52.763Z,4.26
2019-01-15T20:51:03.648Z,4.34
2019-01-15T20:53:52.472Z,4.43
2019-01-15T20:56:41.167Z,4.60
2019-01-15T20:59:34.717Z,4.71
2019-01-15T21:02:17.148Z,4.79
2019-01-15T21:05:16.135Z,4.91
2019-01-15T21:08:06.076Z,5.00
2019-01-15T21:11:02.312Z,5.17
2019-01-15T21:13:56.462Z,5.26
2019-01-15T21:16:44.923Z,5.34
2019-01-15T21:19:37.667Z,5.41
2019-01-15T21:22:26.169Z,5.52
2019-01-15T21:25:22.145Z,5.56
2019-01-15T21:28:20.873Z,5.57
2019-01-15T21:31:09.577Z,5.57
2019-01-15T21:34:03.569Z,5.59
2019-01-15T21:37:05.493Z,5.65
2019-01-15T21:39:54.297Z,5.67
2019-01-15T21:42:42.867Z,5.69
2019-01-15T21:45:35.672Z,5.73
2019-01-15T21:48:24.576Z,5.77
2019-01-15T21:51:13.290Z,5.82
2019-01-15T21:54:12.115Z,5.85
2019-01-15T21:57:06.001Z,5.89
2019-01-15T21:59:54.914Z,5.96
2019-01-15T22:02:51.064Z,5.99
2019-01-15T22:05:36.356Z,5.99
2019-01-15T22:08:26.846Z,6.02
2019-01-15T22:11:28.820Z,6.04
2019-01-15T22:14:17.652Z,6.05
2019-01-15T22:17:07.627Z,6.04
2019-01-15T22:20:00.612Z,6.06
2019-01-15T22:22:56.755Z,6.08
2019-01-15T22:25:45.506Z,6.09
2019-01-15T22:28:44.394Z,6.08
2019-01-15T22:31:39.373Z,6.08
2019-01-15T22:34:29.383Z,6.10
2019-01-15T22:37:22.272Z,6.12
2019-01-15T22:40:13.019Z,6.15
2019-01-15T22:43:02.645Z,6.19
2019-01-15T22:45:51.321Z,6.22
2019-01-15T22:48:41.231Z,6.26
2019-01-15T22:51:42.974Z,6.27
2019-01-15T22:54:26.332Z,6.26
2019-01-15T22:57:16.238Z,6.27
2019-01-15T23:00:05.248Z,6.27
2019-01-15T23:02:54.840Z,6.32
2019-01-15T23:05:39.688Z,6.36
2019-01-15T23:08:28.177Z,6.35
2019-01-15T23:11:17.008Z,6.38
2019-01-15T23:14:05.731Z,6.39
2019-01-15T23:17:04.687Z,6.36
2019-01-15T23:20:06.433Z,6.38
2019-01-15T23:23:08.466Z,6.39
2019-01-15T23:25:58.686Z,6.40
2019-01-15T23:28:48.615Z,6.43
2019-01-15T23:31:27.574Z,6.43
2019-01-15T23:34:17.513Z,6.44
2019-01-15T23:37:01.326Z,6.40
2019-01-15T23:39:55.218Z,6.39
2019-01-15T23:42:49.163Z,6.39
2019-01-15T23:45:44.936Z,6.44
2019-01-15T23:48:33.546Z,6.38
2019-01-15T23:51:22.304Z,6.40
2019-01-15T23:54:30.774Z,6.37
2019-01-15T23:57:19.483Z,6.41
